Time;durP1;ratioP1;P1;durP2;ratioP2;P2;SDS_P1;SDS_P2;PMS_P1;PMS_P2;Temp;Humidity;BMP_temperature;BMP_pressure;BME280_temperature;BME280_humidity;BME280_pressure;Samples;Min_cycle;Max_cycle;Signal;HPM_P1;HPM_P2
2021/04/19 00:00:52;;;;;;;22.45;15.85;;;;;;;10.06;59.36;100554.06;5073055;28;20052;-68
2021/04/19 00:03:19;;;;;;;20.05;16.38;;;;;;;10.04;59.34;100555.91;5074505;28;20132;-70
2021/04/19 00:05:46;;;;;;;23.27;17.15;;;;;;;9.95;60.04;100555.34;5073331;28;20068;-70
2021/04/19 00:08:13;;;;;;;20.95;16.02;;;;;;;10.12;59.41;100551.19;5075437;28;20445;-68
2021/04/19 00:10:39;;;;;;;19.42;16.48;;;;;;;10.05;59.47;100547.16;5072580;28;20094;-69
2021/04/19 00:13:06;;;;;;;24.95;17.73;;;;;;;9.84;60.06;100539.34;5079245;28;20498;-68
2021/04/19 00:15:32;;;;;;;22.60;16.30;;;;;;;9.90;60.11;100548.66;5081859;28;20124;-70
2021/04/19 00:17:59;;;;;;;19.90;15.93;;;;;;;9.93;59.84;100545.94;5093204;28;20048;-70
2021/04/19 00:20:26;;;;;;;21.73;15.18;;;;;;;9.92;59.40;100542.50;5076391;28;20048;-70
2021/04/19 00:22:53;;;;;;;20.50;15.30;;;;;;;9.83;60.11;100537.66;5074088;28;20352;-69
2021/04/19 00:25:19;;;;;;;19.10;16.55;;;;;;;9.88;59.77;100540.91;5071582;28;20120;-69
2021/04/19 00:27:49;;;;;;;20.60;16.23;;;;;;;9.83;60.26;100535.06;5074660;28;20406;-69
2021/04/19 00:30:16;;;;;;;20.10;17.35;;;;;;;9.83;59.68;100529.84;5085838;28;20383;-69
2021/04/19 00:32:43;;;;;;;21.27;15.48;;;;;;;9.81;59.89;100530.84;5094922;28;20115;-69
2021/04/19 00:35:11;;;;;;;20.27;17.00;;;;;;;9.64;60.13;100529.78;5080462;28;20072;-69
2021/04/19 00:37:37;;;;;;;19.55;15.95;;;;;;;9.74;60.17;100526.78;5074267;28;20151;-70
2021/04/19 00:40:08;;;;;;;22.98;16.73;;;;;;;9.68;60.38;100526.13;5082772;28;20048;-70
2021/04/19 00:42:35;;;;;;;20.08;16.05;;;;;;;9.80;60.16;100534.31;5093579;28;20056;-69
2021/04/19 00:45:06;;;;;;;23.38;17.48;;;;;;;9.75;59.90;100524.13;5083786;28;20036;-69
2021/04/19 00:47:35;;;;;;;19.85;15.80;;;;;;;9.73;60.38;100522.50;5074124;28;20376;-69
2021/04/19 00:50:09;;;;;;;22.23;16.50;;;;;;;9.76;60.04;100523.22;5078024;28;20050;-69
2021/04/19 00:52:36;;;;;;;23.27;18.00;;;;;;;9.65;60.42;100522.81;5074347;28;20090;-69
2021/04/19 00:55:06;;;;;;;23.83;16.52;;;;;;;9.50;60.59;100526.91;5087078;28;20067;-69
2021/04/19 00:57:34;;;;;;;25.40;18.35;;;;;;;9.50;60.25;100533.88;5078983;28;20045;-69
2021/04/19 01:00:03;;;;;;;24.42;17.02;;;;;;;9.66;60.53;100525.34;5079707;28;20119;-69
2021/04/19 01:02:30;;;;;;;21.65;18.02;;;;;;;9.63;60.76;100520.25;5079500;28;20068;-69
2021/04/19 01:04:57;;;;;;;22.05;18.60;;;;;;;9.62;60.46;100520.34;5071769;28;20102;-69
2021/04/19 01:07:26;;;;;;;22.00;19.20;;;;;;;9.63;60.36;100527.22;5075096;28;20110;-68
2021/04/19 01:09:53;;;;;;;24.90;17.73;;;;;;;9.55;60.92;100539.72;5073340;28;20040;-69
2021/04/19 01:12:20;;;;;;;20.40;16.50;;;;;;;9.45;61.05;100532.28;5072793;28;20117;-69
2021/04/19 01:14:47;;;;;;;23.05;17.10;;;;;;;9.52;60.71;100532.03;5075398;28;20071;-69
2021/04/19 01:17:13;;;;;;;23.50;18.58;;;;;;;9.49;61.02;100532.19;5072934;28;20090;-69
2021/04/19 01:19:40;;;;;;;25.25;17.60;;;;;;;9.44;61.08;100530.59;5072336;28;20040;-69
2021/04/19 01:22:07;;;;;;;22.50;18.70;;;;;;;9.45;60.67;100529.69;5073435;28;20037;-69
2021/04/19 01:24:34;;;;;;;24.10;17.80;;;;;;;9.45;61.41;100532.28;5073335;28;20033;-69
2021/04/19 01:27:00;;;;;;;23.30;16.85;;;;;;;9.42;61.81;100527.19;5079366;28;20039;-69
2021/04/19 01:29:29;;;;;;;24.80;18.63;;;;;;;9.32;62.44;100531.09;5079694;28;20071;-68
2021/04/19 01:31:56;;;;;;;24.70;17.75;;;;;;;9.42;62.00;100527.19;5076075;28;20125;-69
2021/04/19 01:34:23;;;;;;;25.10;16.95;;;;;;;9.41;61.94;100528.13;5072855;28;20044;-69
2021/04/19 01:36:50;;;;;;;20.75;18.13;;;;;;;9.56;61.42;100529.25;5073090;28;20040;-69
2021/04/19 01:39:18;;;;;;;20.70;17.10;;;;;;;9.67;60.62;100526.19;5074100;28;20041;-68
2021/04/19 01:41:46;;;;;;;23.33;18.30;;;;;;;9.66;60.84;100521.91;5075830;28;20173;-69
2021/04/19 01:44:15;;;;;;;24.05;16.77;;;;;;;9.67;60.61;100523.59;5076329;28;20045;-69
2021/04/19 01:46:42;;;;;;;25.50;16.83;;;;;;;9.70;60.76;100518.28;5076776;28;20166;-69
2021/04/19 01:49:17;;;;;;;23.30;17.15;;;;;;;9.75;60.47;100518.06;5074281;28;20488;-69
2021/04/19 01:51:46;;;;;;;22.83;17.65;;;;;;;9.75;60.44;100523.25;5075772;28;20049;-68
2021/04/19 01:54:14;;;;;;;27.92;19.23;;;;;;;9.70;60.44;100520.88;5072899;28;20041;-69
2021/04/19 01:56:41;;;;;;;25.55;17.90;;;;;;;9.54;60.99;100517.22;5078577;28;20449;-69
2021/04/19 01:59:11;;;;;;;24.77;19.42;;;;;;;9.55;61.26;100521.50;5076553;28;20048;-68
2021/04/19 02:01:57;;;;;;;24.95;18.77;;;;;;;9.65;61.22;100517.63;5073334;28;20056;-69
2021/04/19 02:04:30;;;;;;;20.35;16.90;;;;;;;9.61;60.74;100510.84;5083320;28;20052;-68
2021/04/19 02:07:07;;;;;;;23.33;18.55;;;;;;;9.59;60.74;100523.09;5071328;28;20045;-68
2021/04/19 02:09:46;;;;;;;21.13;16.90;;;;;;;9.56;61.38;100515.38;5077586;28;20063;-67
2021/04/19 02:12:58;;;;;;;23.90;16.70;;;;;;;9.54;60.46;100519.81;5069843;28;20045;-68
2021/04/19 02:15:32;;;;;;;20.27;15.98;;;;;;;9.62;60.68;100515.13;5057906;28;20086;-68
2021/04/19 02:18:09;;;;;;;21.80;16.50;;;;;;;9.55;61.03;100524.13;5069829;28;20048;-68
2021/04/19 02:20:49;;;;;;;21.30;17.10;;;;;;;9.57;61.22;100509.28;5072032;28;20041;-68
2021/04/19 02:23:35;;;;;;;20.40;16.10;;;;;;;9.50;61.39;100520.84;5072746;28;20119;-68
2021/04/19 02:26:10;;;;;;;19.80;16.25;;;;;;;9.60;60.15;100524.78;5073110;28;20110;-69
2021/04/19 02:28:44;;;;;;;21.05;16.00;;;;;;;9.65;60.63;100509.81;5071748;28;20082;-69
2021/04/19 02:31:18;;;;;;;18.92;16.00;;;;;;;9.60;60.70;100516.97;5076008;28;20040;-69
2021/04/19 02:33:48;;;;;;;20.65;17.35;;;;;;;9.52;60.90;100516.41;5073836;28;20380;-69
2021/04/19 02:36:16;;;;;;;23.40;17.02;;;;;;;9.37;60.72;100523.94;5072493;28;20053;-69
2021/04/19 02:38:53;;;;;;;21.40;14.70;;;;;;;9.66;59.87;100522.75;5073563;28;20045;-69
2021/04/19 02:41:25;;;;;;;21.75;16.48;;;;;;;9.30;61.08;100522.50;5071764;28;20071;-69
2021/04/19 02:43:53;;;;;;;24.17;17.30;;;;;;;9.41;60.70;100527.28;5071465;28;20092;-69
2021/04/19 02:46:41;;;;;;;20.50;15.88;;;;;;;9.39;60.86;100521.28;5072434;28;20055;-69
2021/04/19 02:49:08;;;;;;;20.02;15.85;;;;;;;9.28;61.60;100521.72;5073117;28;20055;-69
2021/04/19 02:51:38;;;;;;;21.73;17.48;;;;;;;9.44;61.07;100517.59;5076721;28;20044;-69
2021/04/19 02:54:05;;;;;;;18.90;15.60;;;;;;;9.31;61.48;100513.78;5085631;28;20074;-69
2021/04/19 02:56:34;;;;;;;20.40;15.98;;;;;;;9.33;61.66;100517.19;5092352;28;20055;-69
2021/04/19 02:59:06;;;;;;;22.58;17.45;;;;;;;9.33;61.70;100519.78;5087451;28;20052;-69
2021/04/19 03:01:40;;;;;;;19.70;15.80;;;;;;;9.35;61.96;100522.31;5074337;28;20106;-69
2021/04/19 03:04:16;;;;;;;21.02;14.82;;;;;;;9.31;62.26;100518.97;5080148;28;20110;-69
2021/04/19 03:06:57;;;;;;;19.48;16.02;;;;;;;9.37;62.14;100513.53;5090197;28;20060;-69
2021/04/19 03:09:26;;;;;;;20.77;16.50;;;;;;;9.39;62.35;100510.88;5091846;28;20048;-70
2021/04/19 03:11:55;;;;;;;23.35;18.05;;;;;;;9.39;62.45;100506.53;5092128;28;20036;-69
2021/04/19 03:14:38;;;;;;;24.35;18.17;;;;;;;9.35;62.12;100499.75;5090498;28;20458;-68
2021/04/19 03:17:13;;;;;;;21.27;17.15;;;;;;;9.31;62.77;100500.78;5090501;28;20040;-68
2021/04/19 03:20:05;;;;;;;21.73;17.90;;;;;;;9.34;62.84;100497.22;5084852;28;20059;-68
2021/04/19 03:22:43;;;;;;;21.10;16.05;;;;;;;9.43;62.22;100504.66;5083260;28;20426;-68
2021/04/19 03:25:12;;;;;;;20.88;16.38;;;;;;;9.33;61.70;100498.97;5086832;28;20569;-69
2021/04/19 03:27:43;;;;;;;20.75;16.23;;;;;;;9.39;61.95;100503.91;5085385;28;20380;-69
2021/04/19 03:30:13;;;;;;;23.70;17.35;;;;;;;9.44;61.44;100498.53;5084516;28;20555;-69
2021/04/19 03:32:53;;;;;;;20.40;16.90;;;;;;;9.43;62.42;100508.09;5090543;28;20037;-69
2021/04/19 03:35:29;;;;;;;21.67;16.50;;;;;;;9.38;62.86;100498.78;5090210;28;20036;-69
2021/04/19 03:37:59;;;;;;;21.63;16.23;;;;;;;9.43;61.98;100502.91;5070799;28;20044;-68
2021/04/19 03:40:33;;;;;;;22.00;16.17;;;;;;;9.48;62.36;100494.03;5071003;28;20075;-68
2021/04/19 03:43:10;;;;;;;23.60;17.40;;;;;;;9.55;62.06;100492.88;5078451;28;20053;-69
2021/04/19 03:45:47;;;;;;;24.27;16.98;;;;;;;9.54;62.52;100494.63;5074483;28;20450;-68
2021/04/19 03:48:39;;;;;;;22.88;17.38;;;;;;;9.47;62.58;100492.34;5075595;28;20044;-68
2021/04/19 03:51:18;;;;;;;24.45;17.20;;;;;;;9.53;62.45;100492.94;5071404;28;20414;-68
2021/04/19 03:53:54;;;;;;;22.52;17.73;;;;;;;9.48;62.65;100488.81;5079941;28;20048;-68
2021/04/19 03:56:26;;;;;;;22.83;15.73;;;;;;;9.50;62.49;100493.06;5078573;28;20044;-69
2021/04/19 03:59:04;;;;;;;22.35;16.13;;;;;;;9.60;62.00;100493.53;5080159;28;20094;-69
2021/04/19 04:01:42;;;;;;;25.08;17.73;;;;;;;9.57;62.83;100501.47;5075789;28;20071;-70
2021/04/19 04:04:12;;;;;;;21.65;17.60;;;;;;;9.64;62.06;100497.69;5078065;28;20087;-69
2021/04/19 04:07:04;;;;;;;22.95;18.48;;;;;;;9.66;61.51;100498.47;5080500;28;20047;-69
2021/04/19 04:09:37;;;;;;;22.80;17.20;;;;;;;9.56;61.96;100492.81;5087441;28;20036;-69
2021/04/19 04:12:04;;;;;;;23.45;18.25;;;;;;;9.64;61.66;100500.28;5091620;28;20090;-69
2021/04/19 04:14:36;;;;;;;26.63;17.88;;;;;;;9.60;61.98;100498.75;5091299;28;20118;-69
2021/04/19 04:17:04;;;;;;;25.58;18.35;;;;;;;9.60;62.14;100494.38;5090083;28;20059;-68
2021/04/19 04:19:54;;;;;;;23.90;17.67;;;;;;;9.54;62.65;100499.00;5094758;28;20040;-69
2021/04/19 04:22:23;;;;;;;28.23;18.23;;;;;;;9.62;62.79;100496.91;5077517;28;20055;-69
2021/04/19 04:24:51;;;;;;;23.10;18.48;;;;;;;9.63;63.09;100486.44;5093387;28;20040;-69
2021/04/19 04:27:22;;;;;;;28.27;18.67;;;;;;;9.72;62.80;100490.41;5094839;28;20051;-69
2021/04/19 04:29:49;;;;;;;24.17;17.08;;;;;;;9.62;63.30;100486.50;5093222;28;20044;-69
2021/04/19 04:32:40;;;;;;;25.42;18.95;;;;;;;9.63;63.29;100486.44;5055875;28;20052;-70
2021/04/19 04:35:21;;;;;;;22.85;16.65;;;;;;;9.67;62.59;100494.97;5095636;28;20462;-71
2021/04/19 04:38:02;;;;;;;22.17;17.27;;;;;;;9.69;62.82;100493.13;5076572;28;20138;-71
2021/04/19 04:40:36;;;;;;;21.38;16.85;;;;;;;9.74;63.00;100500.75;5092104;28;21016;-71
2021/04/19 04:43:14;;;;;;;20.85;16.15;;;;;;;9.61;62.39;100496.06;5094627;28;20044;-71
2021/04/19 04:45:42;;;;;;;23.92;17.20;;;;;;;9.23;64.17;100509.81;5081458;28;20044;-70
2021/04/19 04:48:27;;;;;;;24.73;16.98;;;;;;;9.18;63.87;100510.84;5094515;28;20498;-71
2021/04/19 04:51:08;;;;;;;20.40;15.30;;;;;;;9.28;62.91;100510.47;5093801;28;20040;-70
2021/04/19 04:53:37;;;;;;;21.67;14.93;;;;;;;9.35;62.46;100510.16;5093706;28;20055;-70
2021/04/19 04:56:06;;;;;;;25.17;17.67;;;;;;;9.61;61.56;100505.63;5095071;28;20048;-70
2021/04/19 04:58:35;;;;;;;21.83;17.63;;;;;;;9.63;60.93;100509.00;5092271;28;20059;-71
2021/04/19 05:01:05;;;;;;;25.02;16.77;;;;;;;9.50;61.97;100507.84;5085389;28;20098;-69
2021/04/19 05:03:32;;;;;;;27.77;19.55;;;;;;;9.34;61.82;100513.66;5084205;28;20075;-69
2021/04/19 05:06:09;;;;;;;27.90;19.13;;;;;;;9.57;61.18;100510.09;5084698;28;20068;-67
2021/04/19 05:08:38;;;;;;;24.02;19.40;;;;;;;9.26;61.48;100515.72;5071425;28;20045;-68
2021/04/19 05:11:06;;;;;;;26.52;18.90;;;;;;;9.10;62.05;100520.69;5071614;28;20075;-67
2021/04/19 05:13:33;;;;;;;28.75;20.58;;;;;;;9.48;61.33;100514.84;5072841;28;20068;-66
2021/04/19 05:16:01;;;;;;;31.02;19.10;;;;;;;9.76;60.98;100512.81;5072258;28;20128;-66
2021/04/19 05:18:28;;;;;;;30.98;21.27;;;;;;;9.84;59.95;100522.88;5072237;28;20055;-65
2021/04/19 05:20:55;;;;;;;22.95;17.95;;;;;;;9.38;61.61;100523.06;5071266;28;20124;-67
2021/04/19 05:23:22;;;;;;;27.33;18.33;;;;;;;9.30;61.34;100534.66;5070090;28;20483;-65
2021/04/19 05:25:49;;;;;;;27.08;19.02;;;;;;;9.14;61.49;100531.81;5077792;28;20098;-65
2021/04/19 05:28:19;;;;;;;27.38;20.67;;;;;;;8.95;62.61;100543.84;5075065;28;20390;-67
2021/04/19 05:30:49;;;;;;;29.08;22.38;;;;;;;8.94;62.50;100540.38;5080499;28;20068;-67
2021/04/19 05:33:16;;;;;;;27.10;19.40;;;;;;;9.31;61.90;100545.00;5076722;28;20102;-65
2021/04/19 05:35:44;;;;;;;21.27;17.98;;;;;;;9.60;61.24;100548.19;5077297;28;20075;-67
2021/04/19 05:38:11;;;;;;;24.73;18.77;;;;;;;9.56;60.73;100549.22;5074815;28;20048;-67
2021/04/19 05:40:38;;;;;;;26.70;17.52;;;;;;;9.75;60.09;100550.16;5073510;28;20048;-65
2021/04/19 05:43:07;;;;;;;21.65;18.02;;;;;;;9.82;60.28;100545.53;5081144;28;20059;-65
2021/04/19 05:45:36;;;;;;;27.48;17.70;;;;;;;10.00;59.14;100549.13;5078617;28;20058;-69
2021/04/19 05:48:04;;;;;;;24.10;17.95;;;;;;;10.08;59.14;100549.66;5084326;28;20045;-69
2021/04/19 05:50:31;;;;;;;23.50;17.63;;;;;;;10.46;58.33;100554.06;5077034;28;20071;-69
2021/04/19 05:52:59;;;;;;;21.95;16.70;;;;;;;10.72;57.71;100559.84;5083118;28;20074;-72
2021/04/19 05:55:33;;;;;;;23.15;16.95;;;;;;;10.64;57.30;100556.75;5083999;28;20036;-69
2021/04/19 05:58:10;;;;;;;25.25;17.85;;;;;;;10.22;58.16;100558.53;5072277;28;20041;-70
2021/04/19 06:00:48;;;;;;;30.35;18.52;;;;;;;10.52;57.84;100559.91;5070488;28;20090;-69
2021/04/19 06:03:20;;;;;;;24.60;18.17;;;;;;;10.73;57.55;100551.13;5070630;28;20075;-72
2021/04/19 06:06:00;;;;;;;22.27;17.73;;;;;;;10.91;56.77;100560.69;5070924;28;20478;-66
2021/04/19 06:08:53;;;;;;;23.30;18.75;;;;;;;10.76;57.24;100561.41;5081228;28;20047;-69
2021/04/19 06:11:38;;;;;;;26.85;18.52;;;;;;;10.76;57.68;100564.03;5081465;28;20044;-69
2021/04/19 06:14:23;;;;;;;24.25;17.63;;;;;;;11.17;55.84;100562.06;5085734;28;20055;-69
2021/04/19 06:16:51;;;;;;;28.17;20.05;;;;;;;10.70;57.75;100561.66;5092929;28;20067;-69
2021/04/19 06:19:20;;;;;;;31.45;21.00;;;;;;;11.10;56.83;100565.91;5093354;28;20044;-70
2021/04/19 06:21:47;;;;;;;25.52;19.15;;;;;;;11.70;55.45;100566.47;5090274;28;20064;-69
2021/04/19 06:24:13;;;;;;;25.30;18.30;;;;;;;11.96;54.94;100556.53;5092547;28;20052;-69
2021/04/19 06:26:40;;;;;;;24.75;19.40;;;;;;;12.30;53.78;100558.22;5092043;28;20067;-69
2021/04/19 06:29:12;;;;;;;29.73;20.33;;;;;;;12.46;52.79;100559.13;5090256;28;20474;-70
2021/04/19 06:31:50;;;;;;;35.85;23.48;;;;;;;12.74;52.39;100560.28;5090832;28;20044;-69
2021/04/19 06:34:20;;;;;;;32.47;24.27;;;;;;;13.06;51.16;100556.75;5091077;28;20091;-69
2021/04/19 06:36:48;;;;;;;36.22;25.52;;;;;;;13.33;50.14;100561.41;5072395;28;20390;-70
2021/04/19 06:39:17;;;;;;;32.67;24.80;;;;;;;14.15;48.86;100553.97;5072175;28;20041;-69
2021/04/19 06:41:45;;;;;;;30.88;22.52;;;;;;;14.37;48.04;100553.50;5071791;28;20040;-69
2021/04/19 06:44:15;;;;;;;32.75;23.25;;;;;;;14.78;48.11;100549.31;5069417;28;20044;-70
2021/04/19 06:46:44;;;;;;;31.92;22.45;;;;;;;14.96;47.08;100555.16;5071105;28;20045;-70
2021/04/19 06:49:13;;;;;;;30.02;22.05;;;;;;;15.41;46.38;100544.34;5071351;28;20540;-69
2021/04/19 06:51:41;;;;;;;36.08;22.80;;;;;;;15.56;45.53;100542.50;5070865;28;20043;-70
2021/04/19 06:54:10;;;;;;;33.72;26.08;;;;;;;15.98;44.26;100551.13;5070260;28;20055;-69
2021/04/19 06:56:42;;;;;;;32.72;25.15;;;;;;;15.65;44.48;100546.31;5071501;28;20041;-70
2021/04/19 06:59:20;;;;;;;31.75;24.02;;;;;;;15.23;45.04;100550.78;5070801;28;20041;-70
2021/04/19 07:01:52;;;;;;;28.50;22.08;;;;;;;15.33;44.56;100553.66;5071607;28;20044;-70
2021/04/19 07:04:29;;;;;;;25.67;20.63;;;;;;;15.61;43.57;100553.56;5085456;28;20040;-70
2021/04/19 07:06:58;;;;;;;30.20;24.38;;;;;;;15.63;44.87;100550.84;5091694;28;20074;-70
2021/04/19 07:09:32;;;;;;;36.53;27.85;;;;;;;15.26;45.98;100560.25;5091894;28;20075;-70
2021/04/19 07:12:03;;;;;;;37.05;29.25;;;;;;;14.28;48.72;100555.88;5089941;28;20123;-70
2021/04/19 07:14:31;;;;;;;33.95;27.63;;;;;;;13.88;50.62;100552.97;5090440;28;20543;-70
2021/04/19 07:16:58;;;;;;;33.30;24.77;;;;;;;14.19;48.08;100554.63;5092469;28;20460;-70
2021/04/19 07:19:25;;;;;;;31.15;25.00;;;;;;;15.04;48.38;100551.13;5091465;28;20097;-70
2021/04/19 07:21:52;;;;;;;31.17;25.63;;;;;;;15.85;47.07;100553.72;5071347;28;20055;-70
2021/04/19 07:24:20;;;;;;;29.48;25.75;;;;;;;16.60;45.47;100545.09;5071629;28;20045;-70
2021/04/19 07:26:49;;;;;;;29.45;23.67;;;;;;;17.05;42.97;100546.28;5071985;28;20052;-70
2021/04/19 07:29:16;;;;;;;35.15;27.73;;;;;;;17.09;42.61;100549.53;5053943;28;20036;-70
2021/04/19 07:31:53;;;;;;;27.45;19.85;;;;;;;18.02;39.99;100537.34;5077635;28;20445;-70
2021/04/19 07:34:28;;;;;;;29.70;20.98;;;;;;;18.04;39.50;100538.06;5069520;28;20128;-70
2021/04/19 07:37:03;;;;;;;25.38;21.23;;;;;;;17.69;39.07;100535.44;5067376;28;20048;-70
2021/04/19 07:39:36;;;;;;;25.02;21.73;;;;;;;18.64;38.75;100539.53;5069323;28;20052;-71
2021/04/19 07:42:07;;;;;;;22.83;19.58;;;;;;;19.58;36.72;100532.81;5069968;28;20052;-71
2021/04/19 07:44:36;;;;;;;21.38;18.77;;;;;;;19.06;36.56;100531.81;5068242;28;20040;-70
2021/04/19 07:47:27;;;;;;;21.13;18.85;;;;;;;20.35;34.30;100525.41;5070323;28;20085;-71
2021/04/19 07:50:13;;;;;;;23.48;21.05;;;;;;;20.16;34.94;100527.94;5072210;28;20482;-71
2021/04/19 07:52:48;;;;;;;22.00;19.58;;;;;;;20.88;33.33;100522.53;5070843;28;20119;-71
2021/04/19 07:55:36;;;;;;;36.08;20.75;;;;;;;20.80;33.10;100522.38;5074053;28;20098;-71
2021/04/19 07:58:07;;;;;;;19.65;17.65;;;;;;;21.36;31.79;100521.78;5073180;28;20056;-72
2021/04/19 08:00:38;;;;;;;20.20;16.02;;;;;;;21.68;30.43;100513.53;5072074;28;20063;-71
2021/04/19 08:03:10;;;;;;;17.52;15.70;;;;;;;22.07;29.69;100518.75;5076770;28;20504;-70
2021/04/19 08:05:47;;;;;;;22.83;19.70;;;;;;;21.78;30.10;100515.31;5089338;28;20044;-71
2021/04/19 08:08:14;;;;;;;19.17;17.00;;;;;;;21.38;30.48;100521.66;5073153;28;20045;-71
2021/04/19 08:10:43;;;;;;;29.73;18.08;;;;;;;21.36;30.67;100524.44;5073760;28;20044;-71
2021/04/19 08:13:13;;;;;;;18.85;16.90;;;;;;;21.70;30.34;100522.19;5071418;28;20477;-71
2021/04/19 08:15:42;;;;;;;17.70;15.02;;;;;;;22.27;28.75;100519.56;5073116;28;20045;-71
2021/04/19 08:18:18;;;;;;;16.70;14.10;;;;;;;22.95;27.48;100514.75;5090706;28;20131;-72
2021/04/19 08:20:53;;;;;;;18.17;14.57;;;;;;;22.96;27.92;100524.44;5092706;28;20514;-71
2021/04/19 08:23:21;;;;;;;18.27;15.80;;;;;;;22.71;27.51;100517.13;5092433;28;20534;-72
2021/04/19 08:25:52;;;;;;;24.33;15.77;;;;;;;21.12;29.39;100523.97;5092292;28;20032;-73
2021/04/19 08:28:25;;;;;;;16.48;14.88;;;;;;;22.53;27.87;100518.88;5093960;28;20052;-71
2021/04/19 08:30:59;;;;;;;14.27;12.95;;;;;;;23.02;27.48;100519.50;5076080;28;20119;-72
2021/04/19 08:33:27;;;;;;;;;;;;;;;23.26;27.93;100523.22;5072750;28;20044;-72
2021/04/19 08:35:55;;;;;;;15.57;14.07;;;;;;;22.09;28.71;100514.13;5072948;28;19920;-71
2021/04/19 08:38:21;;;;;;;14.90;13.50;;;;;;;21.10;29.21;100529.41;5070717;28;20144;-72
2021/04/19 08:40:50;;;;;;;12.80;11.23;;;;;;;22.33;27.92;100518.16;5073707;28;20124;-72
2021/04/19 08:43:22;;;;;;;16.02;13.45;;;;;;;22.86;28.15;100526.28;5073221;28;20490;-72
2021/04/19 08:45:49;;;;;;;15.55;13.98;;;;;;;21.60;28.64;100526.66;5073790;28;20044;-72
2021/04/19 08:48:16;;;;;;;12.98;11.63;;;;;;;21.76;27.78;100531.38;5071777;28;20037;-72
2021/04/19 08:50:46;;;;;;;11.65;10.55;;;;;;;22.26;28.47;100523.19;5073042;28;20052;-72
2021/04/19 08:53:15;;;;;;;12.38;11.10;;;;;;;21.00;29.42;100533.03;5071526;28;20115;-72
2021/04/19 08:55:44;;;;;;;12.32;10.38;;;;;;;21.25;29.12;100537.78;5073590;28;20047;-72
2021/04/19 08:58:15;;;;;;;12.35;11.25;;;;;;;21.59;28.67;100530.28;5073691;28;20071;-72
2021/04/19 09:00:46;;;;;;;15.20;12.65;;;;;;;22.19;27.93;100532.72;5079045;28;20040;-73
2021/04/19 09:03:16;;;;;;;13.65;12.35;;;;;;;22.43;27.81;100525.09;5092911;28;20559;-72
2021/04/19 09:05:43;;;;;;;13.02;10.68;;;;;;;21.96;28.33;100529.53;5093509;28;20607;-72
2021/04/19 09:08:15;;;;;;;11.95;10.75;;;;;;;21.87;28.30;100527.75;5082108;28;20040;-71
2021/04/19 09:11:06;;;;;;;14.93;12.20;;;;;;;22.42;28.65;100523.41;5072770;28;20040;-72
2021/04/19 09:13:36;;;;;;;13.02;11.73;;;;;;;22.22;28.90;100521.81;5074291;28;20036;-72
2021/04/19 09:16:20;;;;;;;16.38;12.50;;;;;;;22.55;28.13;100523.09;5073160;28;20056;-72
2021/04/19 09:18:52;;;;;;;17.35;12.80;;;;;;;21.87;29.08;100519.78;5072074;28;20503;-72
2021/04/19 09:21:42;;;;;;;13.80;12.50;;;;;;;20.50;30.48;100525.06;5072280;28;20051;-72
2021/04/19 09:24:13;;;;;;;15.13;13.55;;;;;;;20.25;31.07;100521.03;5072831;28;20040;-71
2021/04/19 09:26:49;;;;;;;15.32;13.68;;;;;;;20.42;30.48;100518.59;5073619;28;20071;-72
2021/04/19 09:29:25;;;;;;;14.63;12.80;;;;;;;20.59;30.82;100521.63;5073608;28;20043;-72
2021/04/19 09:32:02;;;;;;;16.13;13.20;;;;;;;20.63;31.32;100520.38;5088157;28;20494;-72
2021/04/19 09:34:39;;;;;;;14.50;12.98;;;;;;;20.22;30.45;100522.13;5092822;28;20083;-72
2021/04/19 09:37:08;;;;;;;14.82;13.32;;;;;;;19.40;31.84;100515.84;5091202;28;20146;-72
2021/04/19 09:39:45;;;;;;;15.63;14.10;;;;;;;19.43;32.32;100518.22;5092293;28;20044;-72
2021/04/19 09:42:13;;;;;;;14.20;12.80;;;;;;;19.56;32.29;100508.31;5091503;28;20048;-72
2021/04/19 09:44:54;;;;;;;15.88;14.13;;;;;;;19.85;32.85;100511.19;5078391;28;20151;-72
2021/04/19 09:47:50;;;;;;;16.30;13.52;;;;;;;19.02;33.16;100511.91;5071237;28;20041;-72
2021/04/19 09:50:22;;;;;;;17.08;13.40;;;;;;;18.73;33.69;100512.44;5071789;28;20044;-72
2021/04/19 09:52:50;;;;;;;14.18;12.70;;;;;;;18.12;34.60;100513.75;5071613;28;20128;-72
2021/04/19 09:55:19;;;;;;;17.23;14.45;;;;;;;17.98;35.04;100506.88;5090792;28;20056;-72
2021/04/19 09:57:45;;;;;;;14.55;13.05;;;;;;;17.83;34.86;100511.53;5090170;28;20051;-72
2021/04/19 10:00:14;;;;;;;14.95;13.55;;;;;;;17.48;35.59;100512.38;5071222;28;20079;-72
2021/04/19 10:02:41;;;;;;;17.77;13.15;;;;;;;17.60;36.11;100518.50;5071865;28;20118;-72
2021/04/19 10:05:13;;;;;;;17.60;12.93;;;;;;;17.97;35.82;100510.47;5089685;28;20130;-72
2021/04/19 10:07:45;;;;;;;15.13;13.52;;;;;;;18.07;35.49;100511.47;5092353;28;20488;-72
2021/04/19 10:10:18;;;;;;;15.75;13.93;;;;;;;18.23;36.21;100506.69;5090232;28;20089;-72
2021/04/19 10:12:46;;;;;;;16.02;13.73;;;;;;;17.55;37.50;100505.69;5091376;28;20136;-72
2021/04/19 10:15:21;;;;;;;15.93;13.85;;;;;;;18.02;35.48;100500.41;5092351;28;20478;-72
2021/04/19 10:17:51;;;;;;;15.93;13.38;;;;;;;18.18;35.14;100497.44;5093503;28;20059;-72
2021/04/19 10:20:26;;;;;;;14.60;12.85;;;;;;;18.45;34.86;100494.44;5093158;28;20548;-71
2021/04/19 10:23:05;;;;;;;14.07;12.65;;;;;;;18.43;34.22;100485.78;5093360;28;20040;-71
2021/04/19 10:25:33;;;;;;;10.50;9.40;;;;;;;18.74;33.93;100494.78;5078924;28;20043;-72
2021/04/19 10:28:05;;;;;;;13.20;11.88;;;;;;;18.84;33.50;100483.34;5070648;28;20449;-71
2021/04/19 10:30:31;;;;;;;14.23;12.75;;;;;;;18.59;33.70;100487.09;5070027;28;20036;-72
2021/04/19 10:32:58;;;;;;;14.35;12.43;;;;;;;18.57;34.67;100482.91;5071703;28;20045;-72
2021/04/19 10:35:31;;;;;;;14.07;10.65;;;;;;;17.58;33.56;100485.31;5072085;28;20069;-71
2021/04/19 10:38:15;;;;;;;12.40;10.88;;;;;;;17.42;35.15;100483.00;5073141;28;20075;-72
2021/04/19 10:40:41;;;;;;;12.85;11.55;;;;;;;17.60;35.16;100483.41;5071595;28;20044;-72
2021/04/19 10:43:12;;;;;;;11.68;10.55;;;;;;;17.57;34.42;100478.34;5070006;28;20435;-72
2021/04/19 10:45:40;;;;;;;13.93;10.48;;;;;;;17.41;34.71;100476.03;5071079;28;20533;-72
2021/04/19 10:48:20;;;;;;;10.82;9.80;;;;;;;17.68;34.42;100478.38;5069210;28;20041;-72
2021/04/19 10:50:48;;;;;;;12.25;11.02;;;;;;;17.42;34.05;100478.56;5090690;28;20545;-72
2021/04/19 10:53:34;;;;;;;12.57;10.95;;;;;;;17.79;34.47;100468.75;5088710;28;20597;-71
2021/04/19 10:56:04;;;;;;;11.02;9.85;;;;;;;17.93;34.02;100467.69;5070201;28;20090;-71
2021/04/19 10:58:35;;;;;;;11.93;10.65;;;;;;;18.18;33.75;100458.69;5069293;28;20068;-72
2021/04/19 11:01:03;;;;;;;14.27;10.88;;;;;;;18.23;33.65;100464.47;5082939;28;20555;-72
2021/04/19 11:03:37;;;;;;;11.25;10.07;;;;;;;18.15;32.99;100458.09;5090921;28;20040;-71
2021/04/19 11:06:08;;;;;;;11.35;10.02;;;;;;;17.79;33.07;100460.84;5076791;28;20076;-71
2021/04/19 11:09:02;;;;;;;10.85;9.82;;;;;;;17.87;34.63;100462.03;5071397;28;20075;-72
2021/04/19 11:11:39;;;;;;;20.38;13.73;;;;;;;17.98;36.24;100456.78;5079418;28;20386;-72
2021/04/19 11:14:09;;;;;;;15.90;12.45;;;;;;;17.84;35.29;100463.09;5070645;28;20094;-72
2021/04/19 11:16:35;;;;;;;16.25;13.20;;;;;;;17.33;35.48;100457.34;5070824;28;20449;-72
2021/04/19 11:19:03;;;;;;;23.35;20.70;;;;;;;17.69;36.23;100459.00;5071274;28;20048;-72
2021/04/19 11:21:34;;;;;;;16.65;12.98;;;;;;;17.84;35.28;100449.06;5069070;28;20131;-72
2021/04/19 11:24:12;;;;;;;17.15;13.07;;;;;;;17.60;35.60;100444.72;5071225;28;20087;-72
2021/04/19 11:26:40;;;;;;;14.52;13.00;;;;;;;17.78;35.38;100443.31;5087553;28;20720;-72
2021/04/19 11:29:06;;;;;;;21.05;17.17;;;;;;;17.89;35.84;100436.38;5095208;28;20040;-72
2021/04/19 11:31:43;;;;;;;12.25;10.70;;;;;;;17.66;35.36;100432.84;5077440;28;20040;-72
2021/04/19 11:34:15;;;;;;;11.73;10.48;;;;;;;17.55;35.00;100447.69;5082939;28;20040;-69
2021/04/19 11:37:02;;;;;;;13.63;11.02;;;;;;;17.14;35.12;100432.34;5082523;28;20131;-70